Capitan Miranda — CWBE — position and weather

sailwx.info

Track history (hours):
 
Tides and Currents Weather Stations Pressure Air Temp Water Temp Dewpoint Dewpoint Depression Visibility Wind Speed Wind Dir Waves Ship Positions

Capitan Miranda (Uruguay)

Staysail schooner. Training ship for Uruguayan Navy.

Last reported at 2019-Sep-29 09:38 UTC. Time now 2019-Oct-17 17:39 UTC.
Position N 14°31' W 061°28'.
Warning: this ship's position is 18 days out of date.

; draft 3.8 m.

Type: Ship. MMSI: 770576100.

Date/timePositionNaut miles runAvg speedWind from/ knotsBaromVisibWave heightAir tempDewpointWater temp
2019-Sep-29 09:38N 14°31' W 061°28'293 9.6
2019-Sep-28 03:02N 18°07' W 064°55'1 9.3
2019-Sep-28 02:57N 18°07' W 064°55'4 9.2
2019-Sep-28 02:30N 18°10' W 064°59'5 9.2
2019-Sep-28 02:00N 18°12' W 065°03'5 9.4
2019-Sep-28 01:30N 18°15' W 065°07'5 9.6
2019-Sep-28 01:00N 18°19' W 065°10'5 9.7
2019-Sep-28 00:30N 18°22' W 065°14'5 9.6
2019-Sep-28 00:00N 18°24' W 065°18'5 9.8
2019-Sep-27 23:30N 18°25' W 065°24'5 9.7
2019-Sep-27 23:00N 18°26' W 065°29'5 9.7
2019-Sep-27 22:30N 18°27' W 065°34'25 9.7
2019-Sep-27 19:55N 18°30' W 065°60'4 8.8
2019-Sep-27 19:30N 18°29' W 066°04'4 7.6
2019-Sep-27 19:00N 18°29' W 066°08'1 2.4
2019-Sep-27 18:28N 18°28' W 066°07'0 0.0
2019-Sep-27 17:46N 18°28' W 066°07'0 0.0
2019-Sep-27 17:28N 18°28' W 066°07'0 0.0
2019-Sep-27 16:58N 18°28' W 066°07'0 0.0
2019-Sep-27 16:16N 18°28' W 066°07'0 0.0
2019-Sep-27 15:52N 18°28' W 066°07'0 0.0
2019-Sep-27 15:10N 18°28' W 066°07'0 0.0
2019-Sep-27 14:34N 18°28' W 066°07'0 0.0
2019-Sep-27 14:16N 18°28' W 066°07'0 0.0
2019-Sep-27 13:58N 18°28' W 066°07'0 0.0
2019-Sep-27 13:04N 18°28' W 066°07'0 0.0
2019-Sep-26 05:57N 18°28' W 066°07'1 1.2
2019-Sep-26 05:30N 18°28' W 066°07'2 4.1
2019-Sep-26 04:58N 18°29' W 066°06'4 9.6
2019-Sep-26 04:30N 18°30' W 066°01'32 9.5
2019-Sep-26 01:07N 18°26' W 065°28'110.3
2019-Sep-26 01:00N 18°26' W 065°27'510.0
2019-Sep-26 00:30N 18°25' W 065°21'510.2
2019-Sep-26 00:00N 18°23' W 065°16'5 9.5
2019-Sep-25 23:30N 18°20' W 065°12'4 8.6
2019-Sep-25 22:59N 18°17' W 065°09'4 8.8
2019-Sep-25 22:30N 18°14' W 065°06'5 9.3
2019-Sep-25 22:00N 18°11' W 065°03'2 4.1
2019-Sep-25 21:30N 18°09' W 065°01'5 9.6
2019-Sep-25 20:59N 18°12' W 065°05'5 9.8
2019-Sep-25 20:30N 18°16' W 065°08'510.1
2019-Sep-25 20:00N 18°20' W 065°12'4 8.9
2019-Sep-25 19:30N 18°23' W 065°15'5 9.0
2019-Sep-25 19:00N 18°25' W 065°19'5 9.2
2019-Sep-25 18:30N 18°26' W 065°24'5 9.3
2019-Sep-25 18:00N 18°26' W 065°29'5 9.8
2019-Sep-25 17:30N 18°27' W 065°34'26 9.6
2019-Sep-25 14:49N 18°30' W 066°01'3 9.4
2019-Sep-25 14:30N 18°30' W 066°04'4 7.7
2019-Sep-25 14:00N 18°28' W 066°08'1 0.1
2019-Sep-25 07:41N 18°28' W 066°07'  
Track history (hours):
 
Tides and Currents Weather Stations Pressure Air Temp Water Temp Dewpoint Dewpoint Depression Visibility Wind Speed Wind Dir Waves Ship Positions

Capitan Miranda (Uruguay)

Staysail schooner. Training ship for Uruguayan Navy.

Last reported at 2019-Sep-29 09:38 UTC. Time now 2019-Oct-17 17:39 UTC.
Position N 14°31' W 061°28'.
Warning: this ship's position is 18 days out of date.

; draft 3.8 m.

Type: Ship. MMSI: 770576100.

Date/timePositionNaut miles runAvg speedWind from/ knotsBaromVisibWave heightAir tempDewpointWater temp
2019-Sep-29 09:38N 14°31' W 061°28'293 9.6
2019-Sep-28 03:02N 18°07' W 064°55'1 9.3
2019-Sep-28 02:57N 18°07' W 064°55'4 9.2
2019-Sep-28 02:30N 18°10' W 064°59'5 9.2
2019-Sep-28 02:00N 18°12' W 065°03'5 9.4
2019-Sep-28 01:30N 18°15' W 065°07'5 9.6
2019-Sep-28 01:00N 18°19' W 065°10'5 9.7
2019-Sep-28 00:30N 18°22' W 065°14'5 9.6
2019-Sep-28 00:00N 18°24' W 065°18'5 9.8
2019-Sep-27 23:30N 18°25' W 065°24'5 9.7
2019-Sep-27 23:00N 18°26' W 065°29'5 9.7
2019-Sep-27 22:30N 18°27' W 065°34'25 9.7
2019-Sep-27 19:55N 18°30' W 065°60'4 8.8
2019-Sep-27 19:30N 18°29' W 066°04'4 7.6
2019-Sep-27 19:00N 18°29' W 066°08'1 2.4
2019-Sep-27 18:28N 18°28' W 066°07'0 0.0
2019-Sep-27 17:46N 18°28' W 066°07'0 0.0
2019-Sep-27 17:28N 18°28' W 066°07'0 0.0
2019-Sep-27 16:58N 18°28' W 066°07'0 0.0
2019-Sep-27 16:16N 18°28' W 066°07'0 0.0
2019-Sep-27 15:52N 18°28' W 066°07'0 0.0
2019-Sep-27 15:10N 18°28' W 066°07'0 0.0
2019-Sep-27 14:34N 18°28' W 066°07'0 0.0
2019-Sep-27 14:16N 18°28' W 066°07'0 0.0
2019-Sep-27 13:58N 18°28' W 066°07'0 0.0
2019-Sep-27 13:04N 18°28' W 066°07'0 0.0
2019-Sep-26 05:57N 18°28' W 066°07'1 1.2
2019-Sep-26 05:30N 18°28' W 066°07'2 4.1
2019-Sep-26 04:58N 18°29' W 066°06'4 9.6
2019-Sep-26 04:30N 18°30' W 066°01'32 9.5
2019-Sep-26 01:07N 18°26' W 065°28'110.3
2019-Sep-26 01:00N 18°26' W 065°27'510.0
2019-Sep-26 00:30N 18°25' W 065°21'510.2
2019-Sep-26 00:00N 18°23' W 065°16'5 9.5
2019-Sep-25 23:30N 18°20' W 065°12'4 8.6
2019-Sep-25 22:59N 18°17' W 065°09'4 8.8
2019-Sep-25 22:30N 18°14' W 065°06'5 9.3
2019-Sep-25 22:00N 18°11' W 065°03'2 4.1
2019-Sep-25 21:30N 18°09' W 065°01'5 9.6
2019-Sep-25 20:59N 18°12' W 065°05'5 9.8
2019-Sep-25 20:30N 18°16' W 065°08'510.1
2019-Sep-25 20:00N 18°20' W 065°12'4 8.9
2019-Sep-25 19:30N 18°23' W 065°15'5 9.0
2019-Sep-25 19:00N 18°25' W 065°19'5 9.2
2019-Sep-25 18:30N 18°26' W 065°24'5 9.3
2019-Sep-25 18:00N 18°26' W 065°29'5 9.8
2019-Sep-25 17:30N 18°27' W 065°34'26 9.6
2019-Sep-25 14:49N 18°30' W 066°01'3 9.4
2019-Sep-25 14:30N 18°30' W 066°04'4 7.7
2019-Sep-25 14:00N 18°28' W 066°08'1 0.1
2019-Sep-25 07:41N 18°28' W 066°07'  

Dump ship's entire track history